createdAt,value
2017-01-26T00:00:09.451Z,-2.9
2017-01-26T00:01:09.386Z,-3.11
2017-01-26T00:02:09.368Z,-3.1
2017-01-26T00:03:09.425Z,-3.07
2017-01-26T00:04:09.512Z,-3.05
2017-01-26T00:05:09.398Z,-3.08
2017-01-26T00:06:09.405Z,-3.15
2017-01-26T00:07:09.379Z,-3.14
2017-01-26T00:08:09.437Z,-3.13
2017-01-26T00:09:09.436Z,-3.04
2017-01-26T00:10:09.393Z,-3
2017-01-26T00:11:09.379Z,-3.05
2017-01-26T00:12:09.393Z,-3.1
2017-01-26T00:13:10.585Z,-3
2017-01-26T00:14:09.378Z,-3.05
2017-01-26T00:15:09.758Z,-3
2017-01-26T00:16:09.391Z,-3.05
2017-01-26T00:17:09.397Z,-2.92
2017-01-26T00:18:09.397Z,-3.04
2017-01-26T00:19:09.737Z,-3.04
2017-01-26T00:20:09.397Z,-3.05
2017-01-26T00:21:09.486Z,-2.96
2017-01-26T00:22:09.402Z,-3.02
2017-01-26T00:23:09.791Z,-2.92
2017-01-26T00:24:09.853Z,-3
2017-01-26T00:25:09.391Z,-2.96
2017-01-26T00:26:09.511Z,-3.13
2017-01-26T00:27:09.378Z,-3.05
2017-01-26T00:28:09.384Z,-2.99
2017-01-26T00:29:09.409Z,-2.94
2017-01-26T00:30:09.563Z,-2.94
2017-01-26T00:37:37.843Z,-3.13
2017-01-26T00:37:47.875Z,-3.05
2017-01-26T00:38:47.854Z,-3.08
2017-01-26T00:39:47.843Z,-3.1
2017-01-26T00:40:47.845Z,-2.97
2017-01-26T00:41:47.864Z,-3.05
2017-01-26T00:42:48.148Z,-3.04
2017-01-26T00:43:47.899Z,-2.99
2017-01-26T00:44:47.864Z,-3.08
2017-01-26T00:45:47.944Z,-2.99
2017-01-26T00:46:47.841Z,-3.05
2017-01-26T00:47:47.840Z,-3.08
2017-01-26T00:48:47.867Z,-3.05
2017-01-26T00:49:47.854Z,-3.08
2017-01-26T00:50:48.015Z,-3.17
2017-01-26T00:51:47.859Z,-3.13
2017-01-26T00:52:47.867Z,-3.23
2017-01-26T00:53:47.876Z,-3.25
2017-01-26T00:54:47.855Z,-3.23
2017-01-26T00:55:47.983Z,-3.29
2017-01-26T00:56:47.866Z,-3.26
2017-01-26T00:57:47.895Z,-3.32
2017-01-26T00:58:47.871Z,-3.23
2017-01-26T00:59:47.875Z,-3.33
2017-01-26T01:00:47.880Z,-3.25
2017-01-26T01:01:47.847Z,-3.18
2017-01-26T01:02:47.862Z,-3.39
2017-01-26T01:03:48.116Z,-3.29
2017-01-26T01:04:47.858Z,-3.28
2017-01-26T01:05:47.859Z,-3.35
2017-01-26T01:06:47.848Z,-3.38
2017-01-26T01:07:47.893Z,-3.47
2017-01-26T01:08:47.859Z,-3.33
2017-01-26T01:09:47.849Z,-3.28
2017-01-26T01:10:47.875Z,-3.33
2017-01-26T01:11:47.870Z,-3.39
2017-01-26T01:12:47.855Z,-3.47
2017-01-26T01:13:47.894Z,-3.35
2017-01-26T01:14:47.884Z,-3.46
2017-01-26T01:15:47.920Z,-3.56
2017-01-26T01:16:47.991Z,-3.57
2017-01-26T01:17:47.890Z,-3.61
2017-01-26T01:18:47.865Z,-3.53
2017-01-26T01:19:48.129Z,-3.65
2017-01-26T01:20:47.851Z,-3.51
2017-01-26T01:21:47.872Z,-3.78
2017-01-26T01:22:47.866Z,-3.54
2017-01-26T01:23:47.897Z,-3.65
2017-01-26T01:24:47.871Z,-3.54
2017-01-26T01:25:47.916Z,-3.64
2017-01-26T01:26:47.863Z,-3.6
2017-01-26T01:27:48.008Z,-3.75
2017-01-26T01:28:47.887Z,-3.62
2017-01-26T01:29:47.881Z,-3.65
2017-01-26T01:30:47.937Z,-3.64
2017-01-26T01:31:47.929Z,-3.72
2017-01-26T01:32:47.945Z,-3.56
2017-01-26T01:33:47.877Z,-3.68
2017-01-26T01:34:48.041Z,-3.62
2017-01-26T01:35:47.895Z,-3.64
2017-01-26T01:36:47.892Z,-3.76
2017-01-26T01:37:47.887Z,-3.56
2017-01-26T01:38:47.884Z,-3.65
2017-01-26T01:39:47.904Z,-3.81
2017-01-26T01:40:47.910Z,-3.76
2017-01-26T01:41:47.940Z,-3.62
2017-01-26T01:42:48.246Z,-3.75
2017-01-26T01:43:47.970Z,-3.76
2017-01-26T01:44:48.579Z,-3.81
2017-01-26T01:45:47.904Z,-3.76
2017-01-26T01:46:47.938Z,-3.75
2017-01-26T01:47:48.552Z,-3.84
2017-01-26T01:48:47.911Z,-3.72
2017-01-26T01:49:47.899Z,-3.83
2017-01-26T01:50:47.892Z,-3.86
2017-01-26T01:51:48.041Z,-3.9
2017-01-26T01:52:48.004Z,-3.87
2017-01-26T01:53:47.913Z,-3.8
2017-01-26T01:54:47.900Z,-3.78
2017-01-26T01:55:47.874Z,-3.89
2017-01-26T01:56:47.906Z,-3.87
2017-01-26T01:57:47.912Z,-3.9
2017-01-26T01:58:47.916Z,-3.91
2017-01-26T01:59:47.925Z,-3.91
2017-01-26T02:00:47.908Z,-4.01
2017-01-26T02:01:47.925Z,-3.89
2017-01-26T02:02:47.901Z,-3.91
2017-01-26T02:03:47.900Z,-4.11
2017-01-26T02:04:47.916Z,-3.98
2017-01-26T02:05:48.156Z,-3.94
2017-01-26T02:06:47.914Z,-4.09
2017-01-26T02:07:48.035Z,-4.11
2017-01-26T02:08:47.914Z,-4.09
2017-01-26T02:09:47.986Z,-4.08
2017-01-26T02:10:47.917Z,-3.98
2017-01-26T02:11:47.954Z,-4.02
2017-01-26T02:12:47.903Z,-4.11
2017-01-26T02:13:47.896Z,-3.98
2017-01-26T02:14:47.919Z,-4.15
2017-01-26T02:15:47.931Z,-4.14
2017-01-26T02:16:47.891Z,-4.28
2017-01-26T02:17:47.912Z,-4.2
2017-01-26T02:18:47.909Z,-4.14
2017-01-26T02:19:47.900Z,-4.02
2017-01-26T02:20:47.919Z,-4.04
2017-01-26T02:21:47.931Z,-4.12
2017-01-26T02:22:48.894Z,-4.15
2017-01-26T02:23:47.921Z,-4.09
2017-01-26T02:24:47.934Z,-4.11
2017-01-26T02:25:48.113Z,-4.11
2017-01-26T02:26:47.917Z,-4.11
2017-01-26T02:27:47.913Z,-4.14
2017-01-26T02:28:47.971Z,-4.19
2017-01-26T02:29:47.955Z,-4.14
2017-01-26T02:30:47.912Z,-4.09
2017-01-26T02:31:47.917Z,-4.14
2017-01-26T02:32:47.921Z,-4.22
2017-01-26T02:33:47.913Z,-4.07
2017-01-26T02:34:48.295Z,-4.18
2017-01-26T02:35:47.898Z,-4.05
2017-01-26T02:36:47.904Z,-4.12
2017-01-26T02:37:47.911Z,-4.22
2017-01-26T02:38:47.978Z,-4.15
2017-01-26T02:39:47.932Z,-4.11
2017-01-26T02:40:48.071Z,-4.15
2017-01-26T02:41:47.924Z,-4.28
2017-01-26T02:42:47.930Z,-4.22
2017-01-26T02:43:47.908Z,-4.26
2017-01-26T02:44:47.915Z,-4.12
2017-01-26T02:45:47.898Z,-4.22
2017-01-26T02:46:47.978Z,-4.28
2017-01-26T02:47:48.081Z,-4.14
2017-01-26T02:48:47.925Z,-4.29
2017-01-26T02:49:47.942Z,-4.33
2017-01-26T02:50:48.167Z,-4.38
2017-01-26T02:51:47.914Z,-4.33
2017-01-26T02:52:48.001Z,-4.12
2017-01-26T02:53:47.933Z,-4.12
2017-01-26T02:54:47.943Z,-4.22
2017-01-26T02:55:47.927Z,-4.25
2017-01-26T02:56:47.924Z,-4.25
2017-01-26T02:57:48.068Z,-4.3
2017-01-26T02:58:48.096Z,-4.28
2017-01-26T02:59:47.928Z,-4.28
2017-01-26T03:00:47.920Z,-4.33
2017-01-26T03:01:48.349Z,-4.2
2017-01-26T03:02:47.954Z,-4.3
2017-01-26T03:03:47.935Z,-4.28
2017-01-26T03:04:49.006Z,-4.28
2017-01-26T03:05:48.426Z,-4.23
2017-01-26T03:06:47.931Z,-4.32
2017-01-26T03:07:48.042Z,-4.38
2017-01-26T03:08:47.921Z,-4.3
2017-01-26T03:09:48.175Z,-4.41
2017-01-26T03:10:48.241Z,-4.3
2017-01-26T03:11:47.933Z,-4.3
2017-01-26T03:12:47.927Z,-4.37
2017-01-26T03:13:47.918Z,-4.3
2017-01-26T03:14:47.964Z,-4.37
2017-01-26T03:15:47.964Z,-4.37
2017-01-26T03:16:47.943Z,-4.37
2017-01-26T03:17:47.942Z,-4.41
2017-01-26T03:18:47.969Z,-4.32
2017-01-26T03:19:47.957Z,-4.23
2017-01-26T03:20:47.978Z,-4.36
2017-01-26T03:21:48.015Z,-4.37
2017-01-26T03:22:47.974Z,-4.43
2017-01-26T03:23:47.939Z,-4.41
2017-01-26T03:24:48.009Z,-4.38
2017-01-26T03:25:48.160Z,-4.48
2017-01-26T03:26:48.649Z,-4.5
2017-01-26T03:27:47.941Z,-4.48
2017-01-26T03:28:47.957Z,-4.47
2017-01-26T03:29:47.949Z,-4.51
2017-01-26T03:30:47.931Z,-4.46
2017-01-26T03:31:47.938Z,-4.59
2017-01-26T03:32:48.004Z,-4.51
2017-01-26T03:33:48.115Z,-4.5
2017-01-26T03:34:47.941Z,-4.47
2017-01-26T03:35:47.947Z,-4.5
2017-01-26T03:36:47.958Z,-4.46
2017-01-26T03:37:47.946Z,-4.54
2017-01-26T03:38:47.946Z,-4.41
2017-01-26T03:39:47.930Z,-4.46
2017-01-26T03:40:48.073Z,-4.41
2017-01-26T03:41:47.948Z,-4.54
2017-01-26T03:42:47.961Z,-4.23
2017-01-26T03:43:47.937Z,-4.3
2017-01-26T03:44:47.955Z,-4.29
2017-01-26T03:45:47.953Z,-4.28
2017-01-26T03:46:47.948Z,-4.32
2017-01-26T03:47:47.970Z,-4.3
2017-01-26T03:48:47.964Z,-4.4
2017-01-26T03:49:47.958Z,-4.4
2017-01-26T03:50:47.946Z,-4.32
2017-01-26T03:51:47.965Z,-4.26
2017-01-26T03:52:47.947Z,-4.26
2017-01-26T03:53:47.965Z,-4.4
2017-01-26T03:54:47.969Z,-4.2
2017-01-26T03:55:47.973Z,-4.3
2017-01-26T03:56:47.992Z,-4.22
2017-01-26T03:57:47.954Z,-4.28
2017-01-26T03:58:47.974Z,-4.29
2017-01-26T03:59:47.974Z,-4.29
2017-01-26T04:00:47.965Z,-4.25
2017-01-26T04:01:47.951Z,-4.15
2017-01-26T04:02:47.937Z,-4.18
2017-01-26T04:03:47.961Z,-4.15
2017-01-26T04:04:47.964Z,-3.96
2017-01-26T04:05:47.976Z,-3.99
2017-01-26T04:06:47.981Z,-3.98
2017-01-26T04:07:47.984Z,-3.99
2017-01-26T04:08:47.965Z,-3.91
2017-01-26T04:09:47.957Z,-4.07
2017-01-26T04:10:47.961Z,-3.98
2017-01-26T04:11:47.988Z,-3.99
2017-01-26T04:12:47.945Z,-3.94
2017-01-26T04:13:47.957Z,-3.91
2017-01-26T04:14:47.964Z,-3.81
2017-01-26T04:15:48.009Z,-3.9
2017-01-26T04:16:47.994Z,-3.81
2017-01-26T04:17:47.990Z,-3.89
2017-01-26T04:18:47.983Z,-3.9
2017-01-26T04:19:48.017Z,-3.84
2017-01-26T04:20:48.016Z,-3.98
2017-01-26T04:21:48.042Z,-4.04
2017-01-26T04:22:47.986Z,-3.86
2017-01-26T04:23:48.004Z,-4.02
2017-01-26T04:24:47.967Z,-4.05
2017-01-26T04:25:47.990Z,-3.93
2017-01-26T04:26:47.967Z,-3.93
2017-01-26T04:27:48.021Z,-3.81
2017-01-26T04:28:47.979Z,-3.84
2017-01-26T04:29:47.979Z,-3.87
2017-01-26T04:30:47.981Z,-3.91
2017-01-26T04:31:47.980Z,-3.87
2017-01-26T04:32:48.005Z,-3.94
2017-01-26T04:33:47.969Z,-3.89
2017-01-26T04:34:47.960Z,-3.84
2017-01-26T04:35:47.971Z,-3.81
2017-01-26T04:36:48.003Z,-3.94
2017-01-26T04:37:47.983Z,-3.87
2017-01-26T04:38:47.998Z,-3.89
2017-01-26T04:39:47.985Z,-3.72
2017-01-26T04:40:47.972Z,-3.94
2017-01-26T04:41:47.998Z,-3.84
2017-01-26T04:42:47.956Z,-3.94
2017-01-26T04:43:47.969Z,-3.9
2017-01-26T04:44:47.973Z,-3.9
2017-01-26T04:45:47.983Z,-3.86
2017-01-26T04:46:47.990Z,-3.84
2017-01-26T04:47:48.008Z,-3.86
2017-01-26T04:48:47.986Z,-3.98
2017-01-26T04:49:47.978Z,-4.07
2017-01-26T04:50:47.969Z,-3.76
2017-01-26T04:51:47.991Z,-3.87
2017-01-26T04:52:47.982Z,-3.9
2017-01-26T04:53:48.021Z,-3.94
2017-01-26T04:54:47.976Z,-3.99
2017-01-26T04:55:47.986Z,-3.75
2017-01-26T04:56:47.986Z,-3.89
2017-01-26T04:57:47.961Z,-3.9
2017-01-26T04:58:47.985Z,-3.91
2017-01-26T04:59:48.004Z,-3.86
2017-01-26T05:00:48.003Z,-3.83
2017-01-26T05:01:47.999Z,-3.93
2017-01-26T05:02:48.012Z,-3.86
2017-01-26T05:03:48.032Z,-3.8
2017-01-26T05:04:48.005Z,-3.83
2017-01-26T05:05:48.029Z,-3.9
2017-01-26T05:06:48.064Z,-3.9
2017-01-26T05:07:48.015Z,-4.05
2017-01-26T05:08:48.021Z,-3.89
2017-01-26T05:09:47.996Z,-3.86
2017-01-26T05:10:48.011Z,-3.9
2017-01-26T05:11:48.003Z,-3.76
2017-01-26T05:12:48.025Z,-3.83
2017-01-26T05:13:48.031Z,-3.93
2017-01-26T05:14:48.024Z,-3.89
2017-01-26T05:15:48.023Z,-3.98
2017-01-26T05:16:48.020Z,-3.89
2017-01-26T05:17:48.009Z,-3.91
2017-01-26T05:18:48.013Z,-3.96
2017-01-26T05:19:48.041Z,-3.94
2017-01-26T05:20:48.031Z,-3.93
2017-01-26T05:21:48.021Z,-3.96
2017-01-26T05:22:48.025Z,-4.04
2017-01-26T05:23:48.017Z,-3.86
2017-01-26T05:24:48.037Z,-3.93
2017-01-26T05:25:48.012Z,-3.99
2017-01-26T05:26:48.025Z,-4.09
2017-01-26T05:27:47.995Z,-4.04
2017-01-26T05:28:48.013Z,-4.11
2017-01-26T05:29:48.006Z,-4.05
2017-01-26T05:30:48.006Z,-4.01
2017-01-26T05:31:48.031Z,-3.98
2017-01-26T05:32:48.092Z,-4.08
2017-01-26T05:33:48.038Z,-4.09
2017-01-26T05:34:48.113Z,-4.11
2017-01-26T05:35:48.035Z,-4.11
2017-01-26T05:36:48.016Z,-4.26
2017-01-26T05:37:48.070Z,-4.08
2017-01-26T05:38:48.032Z,-4.18
2017-01-26T05:39:48.020Z,-3.94
2017-01-26T05:40:48.061Z,-4.02
2017-01-26T05:41:48.009Z,-4.07
2017-01-26T05:42:48.006Z,-4.07
2017-01-26T05:43:48.001Z,-3.99
2017-01-26T05:44:48.032Z,-3.99
2017-01-26T05:45:48.056Z,-4.04
2017-01-26T05:46:48.029Z,-4.15
2017-01-26T05:47:48.045Z,-4.09
2017-01-26T05:48:48.038Z,-4.15
2017-01-26T05:49:48.026Z,-4.37
2017-01-26T05:50:48.096Z,-4.23
2017-01-26T05:51:48.048Z,-4.15
2017-01-26T05:52:48.045Z,-4.2
2017-01-26T05:53:48.042Z,-4.37
2017-01-26T05:54:48.034Z,-4.37
2017-01-26T05:55:48.027Z,-4.29
2017-01-26T05:56:48.061Z,-4.43
2017-01-26T05:57:48.044Z,-4.23
2017-01-26T05:58:48.035Z,-4.37
2017-01-26T05:59:48.051Z,-4.33
2017-01-26T06:00:48.045Z,-4.4
2017-01-26T06:01:48.023Z,-4.37
2017-01-26T06:02:48.031Z,-4.46
2017-01-26T06:03:48.039Z,-4.4
2017-01-26T06:04:48.047Z,-4.47
2017-01-26T06:05:48.064Z,-4.38
2017-01-26T06:06:48.043Z,-4.47
2017-01-26T06:07:48.043Z,-4.47
2017-01-26T06:08:48.039Z,-4.37
2017-01-26T06:09:48.037Z,-4.44
2017-01-26T06:10:48.073Z,-4.44
2017-01-26T06:11:48.077Z,-4.51
2017-01-26T06:12:48.059Z,-4.5
2017-01-26T06:13:48.073Z,-4.46
2017-01-26T06:14:48.067Z,-4.33
2017-01-26T06:15:48.060Z,-4.44
2017-01-26T06:16:48.063Z,-4.46
2017-01-26T06:17:48.064Z,-4.54
2017-01-26T06:18:48.034Z,-4.44
2017-01-26T06:19:48.046Z,-4.48
2017-01-26T06:20:48.062Z,-4.48
2017-01-26T06:26:04.898Z,-4.47
2017-01-26T06:26:14.887Z,-4.41
2017-01-26T06:27:14.914Z,-4.41
2017-01-26T06:28:14.924Z,-4.55
2017-01-26T06:29:14.928Z,-4.48
2017-01-26T06:30:14.896Z,-4.43
2017-01-26T06:31:14.930Z,-4.44
2017-01-26T06:32:14.904Z,-4.46
2017-01-26T06:33:14.919Z,-4.48
2017-01-26T06:34:14.916Z,-4.5
2017-01-26T06:35:14.917Z,-4.62
2017-01-26T06:36:14.909Z,-4.43
2017-01-26T06:37:14.914Z,-4.64
2017-01-26T06:38:14.970Z,-4.55
2017-01-26T06:39:14.912Z,-4.61
2017-01-26T06:40:14.927Z,-4.59
2017-01-26T06:41:14.904Z,-4.55
2017-01-26T06:42:14.920Z,-4.61
2017-01-26T06:43:14.911Z,-4.48
2017-01-26T06:44:14.923Z,-4.5
2017-01-26T06:45:14.995Z,-4.68
2017-01-26T06:46:14.934Z,-4.55
2017-01-26T06:47:14.926Z,-4.62
2017-01-26T06:48:14.955Z,-4.54
2017-01-26T06:49:15.003Z,-4.61
2017-01-26T06:50:14.908Z,-4.41
2017-01-26T06:51:14.909Z,-4.5
2017-01-26T06:52:14.936Z,-4.68
2017-01-26T06:53:14.936Z,-4.57
2017-01-26T06:54:14.942Z,-4.54
2017-01-26T06:55:14.958Z,-4.58
2017-01-26T06:56:14.959Z,-4.58
2017-01-26T06:57:14.939Z,-4.59
2017-01-26T06:58:14.926Z,-4.71
2017-01-26T06:59:15.269Z,-4.69
2017-01-26T07:00:14.975Z,-4.59
2017-01-26T07:01:14.953Z,-4.66
2017-01-26T07:02:14.928Z,-4.68
2017-01-26T07:03:14.917Z,-4.61
2017-01-26T07:04:14.924Z,-4.66
2017-01-26T07:05:14.942Z,-4.64
2017-01-26T07:06:14.923Z,-4.61
2017-01-26T07:07:14.935Z,-4.69
2017-01-26T07:08:14.923Z,-4.5
2017-01-26T07:09:14.924Z,-4.51
2017-01-26T07:10:14.977Z,-4.58
2017-01-26T07:11:14.926Z,-4.61
2017-01-26T07:12:14.945Z,-4.59
2017-01-26T07:13:14.940Z,-4.55
2017-01-26T07:14:14.969Z,-4.55
2017-01-26T07:15:14.954Z,-4.51
2017-01-26T07:16:14.934Z,-4.61
2017-01-26T07:17:14.950Z,-4.62
2017-01-26T07:18:14.940Z,-4.59
2017-01-26T07:19:14.929Z,-4.55
2017-01-26T07:20:14.956Z,-4.59
2017-01-26T07:21:14.981Z,-4.51
2017-01-26T07:22:14.951Z,-4.59
2017-01-26T07:23:14.962Z,-4.69
2017-01-26T07:24:14.933Z,-4.5
2017-01-26T07:25:14.950Z,-4.55
2017-01-26T07:26:14.967Z,-4.51
2017-01-26T07:27:14.950Z,-4.54
2017-01-26T07:28:14.982Z,-4.55
2017-01-26T07:29:14.950Z,-4.61
2017-01-26T07:30:14.969Z,-4.65
2017-01-26T07:31:14.943Z,-4.5
2017-01-26T07:32:14.934Z,-4.65
2017-01-26T07:33:14.949Z,-4.51
2017-01-26T07:34:14.939Z,-4.51
2017-01-26T07:35:14.963Z,-4.44
2017-01-26T07:36:14.925Z,-4.38
2017-01-26T07:37:14.995Z,-4.51
2017-01-26T07:38:14.995Z,-4.43
2017-01-26T07:39:14.975Z,-4.41
2017-01-26T07:40:14.990Z,-4.57
2017-01-26T07:41:14.948Z,-4.41
2017-01-26T07:42:14.990Z,-4.37
2017-01-26T07:43:14.965Z,-4.37
2017-01-26T07:44:14.961Z,-4.47
2017-01-26T07:45:14.954Z,-4.4
2017-01-26T07:46:14.978Z,-4.33
2017-01-26T07:47:14.982Z,-4.32
2017-01-26T07:48:14.956Z,-4.36
2017-01-26T07:49:14.961Z,-4.43
2017-01-26T07:50:14.949Z,-4.32
2017-01-26T07:51:15.060Z,-4.3
2017-01-26T07:52:14.973Z,-4.25
2017-01-26T07:53:14.975Z,-4.26
2017-01-26T07:54:15.003Z,-4.22
2017-01-26T07:55:15.007Z,-4.28
2017-01-26T07:56:14.971Z,-4.19
2017-01-26T07:57:14.976Z,-4.19
2017-01-26T07:58:14.982Z,-4.2
2017-01-26T07:59:14.962Z,-4.09
2017-01-26T08:00:14.969Z,-4.11
2017-01-26T08:01:14.980Z,-4.05
2017-01-26T08:02:14.964Z,-3.86
2017-01-26T08:03:14.944Z,-3.9
2017-01-26T08:04:14.968Z,-3.91
2017-01-26T08:05:14.974Z,-3.7
2017-01-26T08:06:14.981Z,-3.8
2017-01-26T08:07:15.024Z,-3.76
2017-01-26T08:08:14.957Z,-3.78
2017-01-26T08:09:15.020Z,-3.7
2017-01-26T08:10:15.104Z,-3.7
2017-01-26T08:11:14.953Z,-3.64
2017-01-26T08:12:14.953Z,-3.62
2017-01-26T08:13:14.958Z,-3.72
2017-01-26T08:14:14.977Z,-3.71
2017-01-26T08:15:14.957Z,-3.75
2017-01-26T08:16:17.561Z,-3.6
2017-01-26T08:17:15.095Z,-3.6
2017-01-26T08:18:14.973Z,-3.65
2017-01-26T08:19:15.035Z,-3.5
2017-01-26T08:20:15.442Z,-3.56
2017-01-26T08:21:15.089Z,-3.46
2017-01-26T08:22:15.117Z,-3.49
2017-01-26T08:23:15.050Z,-3.49
2017-01-26T08:24:15.295Z,-3.33
2017-01-26T08:25:15.198Z,-3.43
2017-01-26T08:26:15.074Z,-3.39
2017-01-26T08:27:15.032Z,-3.36
2017-01-26T08:28:15.717Z,-3.32
2017-01-26T08:29:14.991Z,-3.32
2017-01-26T08:30:15.041Z,-3.1
2017-01-26T08:31:14.994Z,-3.05
2017-01-26T08:32:14.981Z,-3.04
2017-01-26T08:33:15.033Z,-2.92
2017-01-26T08:34:15.043Z,-2.9
2017-01-26T08:35:16.427Z,-2.9
2017-01-26T08:36:15.033Z,-2.92
2017-01-26T08:37:14.993Z,-2.72
2017-01-26T08:38:17.495Z,-2.6
2017-01-26T08:39:15.167Z,-2.58
2017-01-26T08:40:15.226Z,-2.64
2017-01-26T08:41:15.068Z,-2.53
2017-01-26T08:42:15.074Z,-2.47
2017-01-26T08:43:15.043Z,-2.51
2017-01-26T08:44:15.040Z,-2.5
2017-01-26T08:45:15.005Z,-2.36
2017-01-26T08:46:15.026Z,-2.45
2017-01-26T08:47:15.045Z,-2.24
2017-01-26T08:48:16.092Z,-2.39
2017-01-26T08:49:15.007Z,-2.13
2017-01-26T08:50:15.056Z,-2.11
2017-01-26T08:51:15.033Z,-2.17
2017-01-26T08:52:15.042Z,-2.18
2017-01-26T08:53:15.031Z,-1.96
2017-01-26T08:54:15.102Z,-2.02
2017-01-26T08:55:15.036Z,-1.95
2017-01-26T08:56:15.040Z,-2.05
2017-01-26T08:57:15.043Z,-1.88
2017-01-26T08:58:15.036Z,-1.9
2017-01-26T08:59:15.022Z,-1.81
2017-01-26T09:00:15.020Z,-1.72
2017-01-26T09:01:15.000Z,-1.66
2017-01-26T09:02:15.032Z,-1.75
2017-01-26T09:03:15.022Z,-1.78
2017-01-26T09:04:15.021Z,-1.63
2017-01-26T09:05:15.010Z,-1.51
2017-01-26T09:06:15.009Z,-1.59
2017-01-26T09:07:14.998Z,-1.38
2017-01-26T09:08:15.033Z,-1.43
2017-01-26T09:09:15.007Z,-1.33
2017-01-26T09:10:15.055Z,-1.33
2017-01-26T09:11:15.093Z,-1.24
2017-01-26T09:12:15.048Z,-1.17
2017-01-26T09:13:15.009Z,-1.12
2017-01-26T09:14:15.700Z,-1.07
2017-01-26T09:15:15.036Z,-1.05
2017-01-26T09:16:15.194Z,-1.07
2017-01-26T09:17:15.036Z,-0.99
2017-01-26T09:18:15.058Z,-1
2017-01-26T09:19:15.023Z,-0.94
2017-01-26T09:20:15.013Z,-0.83
2017-01-26T09:21:15.026Z,-0.8
2017-01-26T09:22:15.025Z,-0.84
2017-01-26T09:23:15.063Z,-0.83
2017-01-26T09:24:15.045Z,-0.72
2017-01-26T09:25:15.031Z,-0.8
2017-01-26T09:26:15.014Z,-0.62
2017-01-26T09:27:15.037Z,-0.89
2017-01-26T09:28:15.073Z,-0.62
2017-01-26T09:29:15.027Z,-0.65
2017-01-26T09:30:15.002Z,-0.69
2017-01-26T09:31:15.014Z,-0.62
2017-01-26T09:32:14.999Z,-0.6
2017-01-26T09:33:15.006Z,-0.48
2017-01-26T09:34:15.011Z,-0.63
2017-01-26T09:35:15.070Z,-0.55
2017-01-26T09:36:15.041Z,-0.51
2017-01-26T09:37:15.001Z,-0.47
2017-01-26T09:38:15.033Z,-0.57
2017-01-26T09:39:15.024Z,-0.45
2017-01-26T09:40:15.009Z,-0.54
2017-01-26T09:41:15.008Z,-0.44
2017-01-26T09:42:15.025Z,-0.39
2017-01-26T09:43:15.012Z,-0.41
2017-01-26T09:44:14.995Z,-0.48
2017-01-26T09:45:15.003Z,-0.42
2017-01-26T09:46:15.040Z,-0.44
2017-01-26T09:47:15.003Z,-0.27
2017-01-26T09:48:15.004Z,-0.37
2017-01-26T09:49:15.015Z,-0.27
2017-01-26T09:50:15.045Z,-0.16
2017-01-26T09:51:15.022Z,-0.16
2017-01-26T09:52:15.020Z,-0.16
2017-01-26T09:53:15.022Z,-0.19
2017-01-26T09:54:15.017Z,-0.19
2017-01-26T09:55:15.007Z,-0.13
2017-01-26T09:56:15.006Z,-0.18
2017-01-26T09:57:15.026Z,-0.27
2017-01-26T09:58:15.042Z,-0.22
2017-01-26T09:59:15.040Z,-0.11
2017-01-26T10:00:15.030Z,-0.22
2017-01-26T10:01:15.027Z,0
2017-01-26T10:02:15.044Z,0.02
2017-01-26T10:03:15.049Z,-0.12
2017-01-26T10:04:15.025Z,0.09
2017-01-26T10:05:15.032Z,0.03
2017-01-26T10:06:15.041Z,-0.06
2017-01-26T10:07:15.017Z,-0.01
2017-01-26T10:08:15.054Z,0.02
2017-01-26T10:09:15.035Z,0.21
2017-01-26T10:10:15.023Z,0.06
2017-01-26T10:11:15.016Z,0.24
2017-01-26T10:12:15.023Z,0.06
2017-01-26T10:13:15.041Z,0.23
2017-01-26T10:14:15.064Z,0.12
2017-01-26T10:15:15.057Z,0.23
2017-01-26T10:16:15.079Z,0.12
2017-01-26T10:17:15.020Z,0.28
2017-01-26T10:18:15.076Z,0.45
2017-01-26T10:19:15.019Z,0.41
2017-01-26T10:20:15.032Z,0.45
2017-01-26T10:21:15.063Z,0.51
2017-01-26T10:22:15.074Z,0.39
2017-01-26T10:23:15.039Z,0.39
2017-01-26T10:24:15.149Z,0.51
2017-01-26T10:25:15.046Z,0.45
2017-01-26T10:26:15.072Z,0.58
2017-01-26T10:27:15.035Z,0.49
2017-01-26T10:28:15.129Z,0.62
2017-01-26T10:29:15.167Z,0.46
2017-01-26T10:30:15.035Z,0.71
2017-01-26T10:31:15.040Z,0.65
2017-01-26T10:32:15.043Z,0.75
2017-01-26T10:33:15.030Z,0.62
2017-01-26T10:34:15.084Z,0.67
2017-01-26T10:35:15.062Z,0.7
2017-01-26T10:36:15.139Z,0.67
2017-01-26T10:37:15.069Z,0.82
2017-01-26T10:38:15.044Z,0.75
2017-01-26T10:39:15.375Z,0.79
2017-01-26T10:40:15.062Z,0.8
2017-01-26T10:41:15.123Z,0.89
2017-01-26T10:42:15.050Z,0.83
2017-01-26T10:43:15.054Z,1.01
2017-01-26T10:44:15.152Z,0.83
2017-01-26T10:45:15.039Z,0.8
2017-01-26T10:46:15.042Z,0.9
2017-01-26T10:47:15.047Z,0.97
2017-01-26T10:48:15.103Z,0.97
2017-01-26T10:49:15.117Z,1.04
2017-01-26T10:50:15.062Z,1.08
2017-01-26T10:51:15.093Z,1.06
2017-01-26T10:52:15.057Z,0.9
2017-01-26T10:53:15.056Z,1.07
2017-01-26T10:54:15.078Z,1.12
2017-01-26T10:55:15.089Z,1.06
2017-01-26T10:56:15.063Z,1.1
2017-01-26T10:57:15.059Z,1.24
2017-01-26T10:58:15.043Z,1.26
2017-01-26T10:59:15.135Z,1.07
2017-01-26T11:00:15.058Z,1.22
2017-01-26T11:01:15.058Z,1.21
2017-01-26T11:02:15.074Z,1.33
2017-01-26T11:03:15.077Z,1.28
2017-01-26T11:04:15.099Z,1.39
2017-01-26T11:05:15.149Z,1.32
2017-01-26T11:06:15.511Z,1.36
2017-01-26T11:07:15.069Z,1.34
2017-01-26T11:08:15.067Z,1.47
2017-01-26T11:09:15.069Z,1.4
2017-01-26T11:10:15.071Z,1.42
2017-01-26T11:11:15.076Z,1.37
2017-01-26T11:12:15.104Z,1.52
2017-01-26T11:13:15.075Z,1.37
2017-01-26T11:14:15.068Z,1.52
2017-01-26T11:15:15.094Z,1.47
2017-01-26T11:16:15.146Z,1.5
2017-01-26T11:17:15.065Z,1.52
2017-01-26T11:18:15.091Z,1.55
2017-01-26T11:19:15.142Z,1.5
2017-01-26T11:20:15.128Z,1.64
2017-01-26T11:21:15.071Z,1.54
2017-01-26T11:22:15.080Z,1.54
2017-01-26T11:23:15.117Z,1.68
2017-01-26T11:24:15.066Z,1.57
2017-01-26T11:25:15.069Z,1.62
2017-01-26T11:26:15.096Z,1.72
2017-01-26T11:27:15.090Z,1.68
2017-01-26T11:28:15.103Z,1.61
2017-01-26T11:29:15.648Z,1.76
2017-01-26T11:34:32.617Z,1.89
2017-01-26T11:34:42.801Z,1.83
2017-01-26T11:35:42.751Z,1.9
2017-01-26T11:36:42.723Z,1.85
2017-01-26T11:37:42.761Z,1.79
2017-01-26T11:38:42.756Z,1.87
2017-01-26T11:39:42.752Z,1.94
2017-01-26T11:40:42.758Z,1.94
2017-01-26T11:41:42.818Z,2.01
2017-01-26T11:42:42.752Z,1.93
2017-01-26T11:43:42.770Z,1.99
2017-01-26T11:44:42.788Z,2.13
2017-01-26T11:45:42.722Z,2.01
2017-01-26T11:46:42.694Z,2.1
2017-01-26T11:47:42.698Z,2.02
2017-01-26T11:48:42.700Z,2.09
2017-01-26T11:49:42.699Z,2.16
2017-01-26T11:50:42.713Z,2.28
2017-01-26T11:51:42.729Z,2.15
2017-01-26T11:52:42.695Z,2.23
2017-01-26T11:53:42.731Z,2.22
2017-01-26T11:54:42.724Z,2.2
2017-01-26T11:55:42.754Z,2.19
2017-01-26T11:56:42.792Z,2.33
2017-01-26T11:57:42.714Z,2.23
2017-01-26T11:58:42.777Z,2.44
2017-01-26T11:59:42.702Z,2.35
2017-01-26T12:00:42.709Z,2.27
2017-01-26T12:01:42.723Z,2.31
2017-01-26T12:02:42.735Z,2.35
2017-01-26T12:03:42.706Z,2.4
2017-01-26T12:04:42.750Z,2.53
2017-01-26T12:05:42.759Z,2.26
2017-01-26T12:06:42.720Z,2.41
2017-01-26T12:07:42.727Z,2.51
2017-01-26T12:08:42.731Z,2.52
2017-01-26T12:09:42.708Z,2.45
2017-01-26T12:10:42.740Z,2.48
2017-01-26T12:11:42.723Z,2.35
2017-01-26T12:12:42.725Z,2.44
2017-01-26T12:13:42.729Z,2.46
2017-01-26T12:14:42.714Z,2.64
2017-01-26T12:15:42.721Z,2.58
2017-01-26T12:16:42.721Z,2.56
2017-01-26T12:17:42.718Z,2.55
2017-01-26T12:18:42.755Z,2.45
2017-01-26T12:19:42.740Z,2.58
2017-01-26T12:20:42.724Z,2.61
2017-01-26T12:21:42.707Z,2.56
2017-01-26T12:22:42.751Z,2.51
2017-01-26T12:23:42.714Z,2.55
2017-01-26T12:24:42.714Z,2.67
2017-01-26T12:25:42.923Z,2.56
2017-01-26T12:26:42.721Z,2.61
2017-01-26T12:27:42.732Z,2.64
2017-01-26T12:28:42.754Z,2.48
2017-01-26T12:29:42.724Z,2.37
2017-01-26T12:30:42.730Z,2.51
2017-01-26T12:31:42.809Z,2.44
2017-01-26T12:32:42.758Z,2.51
2017-01-26T12:33:42.733Z,2.56
2017-01-26T12:34:43.080Z,2.69
2017-01-26T12:35:42.824Z,2.58
2017-01-26T12:36:42.759Z,2.69
2017-01-26T12:37:42.802Z,2.55
2017-01-26T12:38:42.876Z,2.63
2017-01-26T12:39:42.789Z,2.64
2017-01-26T12:40:42.781Z,2.53
2017-01-26T12:41:42.776Z,2.59
2017-01-26T12:42:42.811Z,2.48
2017-01-26T12:43:42.745Z,2.73
2017-01-26T12:44:42.919Z,2.76
2017-01-26T12:45:42.759Z,2.79
2017-01-26T12:46:42.731Z,2.64
2017-01-26T12:47:42.776Z,2.73
2017-01-26T12:48:42.753Z,2.71
2017-01-26T12:49:43.143Z,2.7
2017-01-26T12:50:42.755Z,2.7
2017-01-26T12:51:42.825Z,2.56
2017-01-26T12:52:42.862Z,2.77
2017-01-26T12:53:42.845Z,2.77
2017-01-26T12:54:42.761Z,2.69
2017-01-26T12:55:42.738Z,2.69
2017-01-26T12:56:42.741Z,2.79
2017-01-26T12:57:43.543Z,2.81
2017-01-26T12:58:43.000Z,2.67
2017-01-26T12:59:42.745Z,2.76
2017-01-26T13:00:42.745Z,2.81
2017-01-26T13:01:42.761Z,2.84
2017-01-26T13:02:42.765Z,2.69
2017-01-26T13:03:42.813Z,2.69
2017-01-26T13:04:42.768Z,2.81
2017-01-26T13:05:42.745Z,2.76
2017-01-26T13:06:42.754Z,2.66
2017-01-26T13:07:42.751Z,2.81
2017-01-26T13:08:42.750Z,2.73
2017-01-26T13:09:42.784Z,2.84
2017-01-26T13:10:42.746Z,2.77
2017-01-26T13:11:42.817Z,2.82
2017-01-26T13:12:42.747Z,2.76
2017-01-26T13:13:42.768Z,2.85